Terminal Aerodrome Forecast
Issued by NWS

Home | Current Version | Previous Version | Text Only | Print | Product List | Glossary On
Versions: 1 2 3 4 5 6 7 8 9 10 11 12 13 14
000
FTUS44 KLIX 281741
TAFHDC
TAF
KHDC 281741Z 2818/2918 15006KT P6SM SCT014 SCT019
      TEMPO 2822/2902 5SM -RA BKN020
     FM290400 15006KT P6SM VCSH BKN030 BKN090
     FM290700 14006KT P6SM -SHRA VCTS BKN015CB OVC050=

USA.gov is the U.S. government's official web portal to all federal, state and local government web resources and services.